Time;durP1;ratioP1;P1;durP2;ratioP2;P2;SDS_P1;SDS_P2;PMS_P1;PMS_P2;Temp;Humidity;BMP_temperature;BMP_pressure;BME280_temperature;BME280_humidity;BME280_pressure;Samples;Min_cycle;Max_cycle;Signal;HPM_P1;HPM_P2
2021/08/02 00:00:26;;;;;;;3.53;2.60;;;;;;;14.58;100.00;97173.66;5001103;28;20415;-80
2021/08/02 00:02:57;;;;;;;5.72;2.58;;;;;;;14.61;100.00;97184.63;5000611;28;20061;-80
2021/08/02 00:05:25;;;;;;;4.55;2.70;;;;;;;14.70;100.00;97185.25;5017990;28;20095;-82
2021/08/02 00:07:59;;;;;;;4.95;2.50;;;;;;;14.75;100.00;97176.00;5001401;28;20045;-81
2021/08/02 00:10:33;;;;;;;5.07;2.95;;;;;;;14.76;100.00;97177.59;5001611;28;20042;-79
2021/08/02 00:13:07;;;;;;;3.88;2.25;;;;;;;14.80;100.00;97181.19;5016867;28;20483;-81
2021/08/02 00:15:35;;;;;;;7.57;2.78;;;;;;;14.81;100.00;97180.06;5018994;28;20046;-81
2021/08/02 00:18:02;;;;;;;10.07;2.88;;;;;;;14.85;100.00;97189.09;5019190;28;20042;-81
2021/08/02 00:20:32;;;;;;;4.13;2.40;;;;;;;14.81;100.00;97182.78;5002076;28;20117;-80
2021/08/02 00:23:03;;;;;;;4.03;2.42;;;;;;;14.84;100.00;97184.81;5001273;28;20065;-80
2021/08/02 00:25:30;;;;;;;6.15;2.63;;;;;;;14.82;100.00;97185.16;5001440;28;20049;-81
2021/08/02 00:27:56;;;;;;;6.40;2.45;;;;;;;14.79;100.00;97193.22;5017078;23;20071;-80
2021/08/02 00:30:24;;;;;;;9.13;2.60;;;;;;;14.73;100.00;97197.38;5027850;28;20053;-81
2021/08/02 00:32:52;;;;;;;3.58;2.15;;;;;;;14.71;100.00;97191.50;5029216;28;20107;-81
2021/08/02 00:35:19;;;;;;;6.65;2.40;;;;;;;14.71;100.00;97194.22;5026208;28;20038;-80
2021/08/02 00:37:49;;;;;;;6.32;2.33;;;;;;;14.70;100.00;97196.16;5026235;28;20132;-81
2021/08/02 00:40:31;;;;;;;6.70;2.60;;;;;;;14.73;100.00;97191.94;5028311;28;20171;-79
2021/08/02 00:43:20;;;;;;;3.83;2.22;;;;;;;14.70;100.00;97198.09;5027826;28;20184;-81
2021/08/02 00:45:50;;;;;;;3.10;2.28;;;;;;;14.64;100.00;97197.56;5002852;28;20088;-79
2021/08/02 00:48:18;;;;;;;3.55;2.47;;;;;;;14.60;100.00;97210.31;5027174;28;20383;-80
2021/08/02 00:50:49;;;;;;;11.45;2.50;;;;;;;14.59;100.00;97195.09;5027559;28;20046;-80
2021/08/02 00:53:25;;;;;;;6.30;2.95;;;;;;;14.63;100.00;97200.63;5026242;28;20049;-81
2021/08/02 00:56:01;;;;;;;6.97;2.80;;;;;;;14.55;100.00;97202.41;5028024;28;20092;-81
2021/08/02 00:58:29;;;;;;;4.82;2.63;;;;;;;14.54;100.00;97197.28;5026589;28;20038;-80
2021/08/02 01:00:56;;;;;;;5.10;2.78;;;;;;;14.51;100.00;97196.06;5026121;28;20799;-80
2021/08/02 01:03:23;;;;;;;7.47;2.80;;;;;;;14.47;100.00;97200.63;5027586;28;20449;-79
2021/08/02 01:05:55;;;;;;;6.65;3.05;;;;;;;14.45;100.00;97189.31;5028066;28;20037;-80
2021/08/02 01:08:31;;;;;;;3.67;2.70;;;;;;;14.43;100.00;97207.91;5026843;28;20509;-80
2021/08/02 01:11:11;;;;;;;5.07;2.55;;;;;;;14.44;100.00;97211.41;5042976;28;20107;-79
2021/08/02 01:13:42;;;;;;;8.02;2.60;;;;;;;14.48;100.00;97202.19;5026747;28;20050;-80
2021/08/02 01:16:10;;;;;;;3.53;2.70;;;;;;;14.52;100.00;97205.81;5028759;28;20060;-79
2021/08/02 01:18:39;;;;;;;6.00;2.90;;;;;;;14.56;100.00;97195.78;5026953;28;20072;-80
2021/08/02 01:21:08;;;;;;;11.73;3.25;;;;;;;14.59;100.00;97203.25;5026903;28;20042;-80
2021/08/02 01:23:36;;;;;;;5.50;2.92;;;;;;;14.67;100.00;97205.03;5043173;28;20516;-81
2021/08/02 01:26:03;;;;;;;6.82;2.90;;;;;;;14.75;100.00;97204.06;5026433;28;20053;-83
2021/08/02 01:28:30;;;;;;;7.60;3.08;;;;;;;14.81;100.00;97213.53;5037944;28;20045;-81
2021/08/02 01:31:02;;;;;;;5.35;2.58;;;;;;;14.84;100.00;97210.09;5029795;28;20104;-80
2021/08/02 01:33:33;;;;;;;3.80;2.58;;;;;;;14.82;100.00;97197.97;5029678;28;20258;-81
2021/08/02 01:36:03;;;;;;;4.65;2.92;;;;;;;14.82;100.00;97200.72;5046491;28;20040;-80
2021/08/02 01:38:33;;;;;;;5.97;3.10;;;;;;;14.84;100.00;97196.47;5046913;28;20037;-79
2021/08/02 01:41:01;;;;;;;5.38;2.90;;;;;;;14.87;100.00;97200.44;5048396;28;20040;-81
2021/08/02 01:43:28;;;;;;;6.40;2.45;;;;;;;14.77;100.00;97190.06;5051550;28;20132;-83
2021/08/02 01:46:11;;;;;;;6.00;2.90;;;;;;;14.75;100.00;97195.88;5046971;28;20052;-80
2021/08/02 01:48:58;;;;;;;7.47;2.92;;;;;;;14.68;100.00;97214.00;5034148;28;20137;-83
2021/08/02 01:51:45;;;;;;;8.35;2.90;;;;;;;14.71;100.00;97208.63;5025274;28;20111;-81
2021/08/02 01:54:31;;;;;;;7.45;2.90;;;;;;;14.71;100.00;97219.50;5026753;28;20107;-80
2021/08/02 01:57:23;;;;;;;8.50;3.00;;;;;;;14.74;100.00;97220.75;5034677;28;20046;-79
2021/08/02 02:00:11;;;;;;;8.75;2.72;;;;;;;14.79;100.00;97220.47;5039221;28;20454;-80
2021/08/02 02:02:40;;;;;;;5.05;2.92;;;;;;;14.74;100.00;97216.09;5044417;28;20064;-81
2021/08/02 02:05:14;;;;;;;4.90;3.10;;;;;;;14.71;100.00;97218.75;5047018;28;20131;-81
2021/08/02 02:07:48;;;;;;;8.73;3.40;;;;;;;14.72;100.00;97209.41;5045873;28;20040;-81
2021/08/02 02:10:18;;;;;;;5.70;3.47;;;;;;;14.68;100.00;97216.72;5029238;28;20037;-81
2021/08/02 02:12:44;;;;;;;4.65;3.42;;;;;;;14.68;100.00;97211.28;5045898;28;20109;-82
2021/08/02 02:15:12;;;;;;;7.25;3.58;;;;;;;14.67;100.00;97220.56;5040238;28;20037;-81
2021/08/02 02:17:40;;;;;;;10.30;3.72;;;;;;;14.69;100.00;97235.44;5036741;28;20140;-82
2021/08/02 02:20:07;;;;;;;8.35;3.65;;;;;;;14.73;100.00;97228.16;5022094;28;20060;-83
2021/08/02 02:22:36;;;;;;;6.55;3.47;;;;;;;14.68;100.00;97227.63;5027078;28;20041;-81
2021/08/02 02:25:12;;;;;;;7.43;3.97;;;;;;;14.69;100.00;97223.72;5009792;28;20049;-80
2021/08/02 02:27:39;;;;;;;8.18;3.80;;;;;;;14.61;100.00;97241.84;5025796;28;20100;-83
2021/08/02 02:30:07;;;;;;;7.80;3.45;;;;;;;14.55;100.00;97245.97;5027354;28;20061;-81
2021/08/02 02:32:41;;;;;;;7.20;4.18;;;;;;;14.52;100.00;97248.59;5025325;28;20045;-82
2021/08/02 02:35:09;;;;;;;6.65;3.85;;;;;;;14.45;100.00;97240.25;5026468;28;20049;-80
2021/08/02 02:37:39;;;;;;;12.18;4.07;;;;;;;14.40;100.00;97251.41;5024777;28;20045;-81
2021/08/02 02:40:06;;;;;;;13.05;3.92;;;;;;;14.38;100.00;97246.28;5025880;28;20395;-80
2021/08/02 02:42:34;;;;;;;12.10;3.60;;;;;;;14.36;100.00;97256.75;5026371;28;20112;-80
2021/08/02 02:45:01;;;;;;;5.32;3.95;;;;;;;14.39;100.00;97264.22;5026554;28;20140;-81
2021/08/02 02:47:32;;;;;;;6.55;3.92;;;;;;;14.34;100.00;97257.09;5026375;28;20053;-80
2021/08/02 02:50:01;;;;;;;11.63;4.32;;;;;;;14.35;100.00;97260.59;5024977;28;20064;-81
2021/08/02 02:52:28;;;;;;;8.35;4.28;;;;;;;14.39;100.00;97269.66;5025178;28;20163;-82
2021/08/02 02:54:58;;;;;;;6.38;4.70;;;;;;;14.37;100.00;97265.72;5026470;28;20088;-81
2021/08/02 02:57:25;;;;;;;9.10;4.43;;;;;;;14.33;100.00;97269.13;5025963;28;20049;-78
2021/08/02 02:59:51;;;;;;;9.95;3.92;;;;;;;14.28;100.00;97263.09;5025759;28;20053;-82
2021/08/02 03:02:21;;;;;;;8.55;4.03;;;;;;;14.37;100.00;97268.44;5026851;28;20049;-81
2021/08/02 03:04:56;;;;;;;6.65;4.40;;;;;;;14.36;100.00;97273.06;5029196;28;20041;-80
2021/08/02 03:07:25;;;;;;;9.75;4.32;;;;;;;14.38;100.00;97267.28;5032477;28;20044;-81
2021/08/02 03:09:52;;;;;;;9.00;4.00;;;;;;;14.35;100.00;97283.16;5049932;28;20107;-80
2021/08/02 03:12:18;;;;;;;8.70;3.97;;;;;;;14.36;100.00;97273.06;5048987;28;20067;-80
2021/08/02 03:14:45;;;;;;;8.70;4.05;;;;;;;14.36;100.00;97281.25;5031844;28;20053;-81
2021/08/02 03:17:11;;;;;;;6.93;4.28;;;;;;;14.40;100.00;97284.06;5049315;28;20049;-80
2021/08/02 03:19:39;;;;;;;9.05;5.00;;;;;;;14.41;100.00;97289.16;5042165;28;20048;-79
2021/08/02 03:22:36;;;;;;;8.88;4.97;;;;;;;14.38;100.00;97283.63;5044388;28;20037;-79
2021/08/02 03:25:13;;;;;;;10.38;5.18;;;;;;;14.42;100.00;97287.25;5035407;28;20157;-82
2021/08/02 03:27:50;;;;;;;12.23;5.78;;;;;;;14.42;100.00;97284.53;5041301;28;20038;-81
2021/08/02 03:30:20;;;;;;;12.77;5.53;;;;;;;14.44;100.00;97291.19;5036354;28;20090;-80
2021/08/02 03:32:49;;;;;;;10.00;4.72;;;;;;;14.45;100.00;97294.72;5021810;28;20482;-83
2021/08/02 03:35:17;;;;;;;12.02;5.60;;;;;;;14.45;100.00;97300.97;5027355;28;20049;-81
2021/08/02 03:37:44;;;;;;;13.70;5.45;;;;;;;14.52;100.00;97298.44;5048324;28;20048;-80
2021/08/02 03:40:15;;;;;;;8.32;5.20;;;;;;;14.57;100.00;97298.16;5048218;28;20052;-82
2021/08/02 03:42:43;;;;;;;10.80;5.40;;;;;;;14.58;100.00;97304.41;5049189;28;20053;-80
2021/08/02 03:45:11;;;;;;;7.38;5.22;;;;;;;14.62;100.00;97314.25;5048373;28;20493;-80
2021/08/02 03:47:38;;;;;;;13.57;5.40;;;;;;;14.62;100.00;97306.09;5031538;28;20061;-82
2021/08/02 03:50:05;;;;;;;10.88;5.70;;;;;;;14.58;100.00;97321.53;5054698;28;20072;-82
2021/08/02 03:52:34;;;;;;;10.68;5.97;;;;;;;14.45;100.00;97321.97;5050975;28;20052;-82
2021/08/02 03:55:03;;;;;;;23.88;6.40;;;;;;;14.30;100.00;97326.16;5052460;28;20075;-81
2021/08/02 03:57:31;;;;;;;12.23;6.90;;;;;;;14.12;100.00;97333.03;5036364;28;20045;-81
2021/08/02 03:59:58;;;;;;;14.32;7.28;;;;;;;13.99;100.00;97345.13;5045502;28;20095;-80
2021/08/02 04:02:24;;;;;;;19.25;7.63;;;;;;;13.90;100.00;97356.13;5045438;28;20042;-81
2021/08/02 04:04:53;;;;;;;14.20;7.93;;;;;;;13.87;100.00;97347.84;5049792;28;20127;-82
2021/08/02 04:07:20;;;;;;;13.10;8.77;;;;;;;13.86;100.00;97349.00;5046843;28;20487;-82
2021/08/02 04:09:46;;;;;;;14.20;8.98;;;;;;;13.85;100.00;97359.06;5046922;28;20122;-83
2021/08/02 04:12:13;;;;;;;15.02;9.38;;;;;;;13.86;100.00;97357.16;5047882;28;20049;-82
2021/08/02 04:14:43;;;;;;;17.65;9.30;;;;;;;13.86;100.00;97354.44;5047665;28;20055;-81
2021/08/02 04:17:11;;;;;;;18.10;9.43;;;;;;;13.88;100.00;97366.56;5047532;28;20049;-81
2021/08/02 04:19:47;;;;;;;13.82;8.68;;;;;;;13.87;100.00;97364.16;5047055;28;20049;-81
2021/08/02 04:22:14;;;;;;;20.08;9.27;;;;;;;13.86;100.00;97357.91;5049917;28;20064;-84
2021/08/02 04:24:40;;;;;;;15.18;9.38;;;;;;;13.88;100.00;97368.47;5050848;28;20341;-81
2021/08/02 04:27:07;;;;;;;15.55;9.68;;;;;;;13.90;100.00;97371.66;5049349;28;20044;-82
2021/08/02 04:29:34;;;;;;;15.57;8.88;;;;;;;13.95;100.00;97377.66;5050098;28;20041;-83
2021/08/02 04:32:00;;;;;;;13.93;8.45;;;;;;;13.93;100.00;97374.50;5050418;28;20049;-84
2021/08/02 04:34:27;;;;;;;18.20;8.98;;;;;;;13.94;100.00;97377.97;5051448;28;20060;-82
2021/08/02 04:36:54;;;;;;;20.30;9.30;;;;;;;13.99;100.00;97375.06;5049674;28;20071;-82
2021/08/02 04:39:20;;;;;;;16.38;9.65;;;;;;;14.02;100.00;97377.06;5048276;28;20059;-82
2021/08/02 04:41:49;;;;;;;17.95;9.82;;;;;;;14.05;100.00;97373.66;5049039;28;20541;-83
2021/08/02 04:44:16;;;;;;;18.27;8.75;;;;;;;14.07;100.00;97377.63;5047528;28;20064;-83
2021/08/02 04:46:42;;;;;;;17.75;9.52;;;;;;;14.08;100.00;97381.16;5046692;28;20393;-82
2021/08/02 04:49:09;;;;;;;21.08;10.20;;;;;;;14.11;100.00;97386.72;5046534;28;20140;-82
2021/08/02 04:51:36;;;;;;;17.83;9.25;;;;;;;14.14;100.00;97379.78;5048696;28;20056;-82
2021/08/02 04:54:03;;;;;;;19.17;8.60;;;;;;;14.13;100.00;97378.97;5027161;28;20511;-82
2021/08/02 04:56:29;;;;;;;18.55;9.32;;;;;;;14.12;100.00;97384.75;5028961;28;20107;-81
2021/08/02 04:58:56;;;;;;;15.80;8.98;;;;;;;14.15;100.00;97378.63;5029328;28;20123;-81
2021/08/02 05:01:23;;;;;;;12.18;9.05;;;;;;;14.22;100.00;97385.06;5046956;28;20049;-82
2021/08/02 05:03:50;;;;;;;19.50;9.88;;;;;;;14.23;100.00;97396.75;5046051;28;20080;-82
2021/08/02 05:06:16;;;;;;;13.82;9.60;;;;;;;14.29;100.00;97392.66;5045427;28;20155;-81
2021/08/02 05:08:43;;;;;;;16.52;9.30;;;;;;;14.24;100.00;97401.09;5044860;28;20271;-81
2021/08/02 05:11:09;;;;;;;18.35;9.80;;;;;;;14.26;100.00;97385.19;5046017;28;20099;-80
2021/08/02 05:13:36;;;;;;;15.55;9.45;;;;;;;14.29;100.00;97398.91;5070273;28;20040;-81
2021/08/02 05:16:05;;;;;;;18.98;10.18;;;;;;;14.33;100.00;97399.84;5032675;28;20154;-81
2021/08/02 05:18:32;;;;;;;18.23;9.15;;;;;;;14.37;100.00;97396.41;5056484;28;20076;-81
2021/08/02 05:20:59;;;;;;;15.40;9.05;;;;;;;14.34;100.00;97395.19;5039593;28;20052;-81
2021/08/02 05:23:26;;;;;;;16.67;9.60;;;;;;;14.40;100.00;97401.19;5037922;28;20055;-80
2021/08/02 05:25:52;;;;;;;15.00;9.10;;;;;;;14.46;100.00;97397.06;5067259;28;20116;-81
2021/08/02 05:28:20;;;;;;;13.30;9.30;;;;;;;14.53;100.00;97400.00;5081971;28;20514;-81
2021/08/02 05:30:47;;;;;;;16.45;10.38;;;;;;;14.54;100.00;97398.84;5057176;28;20051;-81
2021/08/02 05:33:14;;;;;;;14.57;9.55;;;;;;;14.61;100.00;97407.22;5051441;28;20452;-81
2021/08/02 05:35:41;;;;;;;16.05;9.50;;;;;;;14.52;100.00;97404.66;5066215;28;20052;-82
2021/08/02 05:38:07;;;;;;;13.13;9.15;;;;;;;14.55;100.00;97412.16;5066695;28;20045;-82
2021/08/02 05:40:34;;;;;;;16.23;9.70;;;;;;;14.46;100.00;97413.41;5067722;28;20398;-82
2021/08/02 05:43:00;;;;;;;18.13;9.35;;;;;;;14.43;100.00;97417.63;5067495;28;20048;-83
2021/08/02 05:45:27;;;;;;;13.82;9.25;;;;;;;14.40;100.00;97415.56;5067412;28;20147;-83
2021/08/02 05:47:54;;;;;;;13.95;9.13;;;;;;;14.44;100.00;97415.69;5068045;28;20044;-80
2021/08/02 05:50:23;;;;;;;17.80;9.38;;;;;;;14.38;100.00;97409.69;5050837;28;20037;-81
2021/08/02 05:52:49;;;;;;;16.45;10.00;;;;;;;14.37;100.00;97424.47;5066905;28;20052;-81
2021/08/02 05:55:17;;;;;;;15.48;9.70;;;;;;;14.36;100.00;97422.84;5036139;28;20407;-82
2021/08/02 05:57:47;;;;;;;17.90;9.20;;;;;;;14.42;100.00;97416.03;5047931;28;20118;-82
2021/08/02 06:00:15;;;;;;;19.33;10.10;;;;;;;14.44;100.00;97411.03;5042756;28;20469;-82
2021/08/02 06:02:42;;;;;;;15.52;9.90;;;;;;;14.45;100.00;97414.56;5029303;28;20084;-81
2021/08/02 06:05:10;;;;;;;17.58;9.50;;;;;;;14.45;100.00;97422.72;5056902;28;20406;-82
2021/08/02 06:07:41;;;;;;;15.82;9.80;;;;;;;14.52;100.00;97421.00;5052265;28;20049;-83
2021/08/02 06:10:09;;;;;;;13.55;9.05;;;;;;;14.48;100.00;97419.31;5084807;28;20052;-82
2021/08/02 06:12:36;;;;;;;16.55;8.70;;;;;;;14.52;100.00;97423.72;5068836;28;20118;-81
2021/08/02 06:15:05;;;;;;;23.40;9.65;;;;;;;14.56;100.00;97421.09;5070359;28;20144;-81
2021/08/02 06:17:31;;;;;;;13.13;8.70;;;;;;;14.58;100.00;97422.31;5069290;28;20052;-81
2021/08/02 06:19:58;;;;;;;17.98;9.05;;;;;;;14.53;100.00;97417.13;5069407;28;20147;-82
2021/08/02 06:22:27;;;;;;;14.00;8.57;;;;;;;14.50;100.00;97423.28;5070987;28;20087;-82
2021/08/02 06:24:54;;;;;;;16.95;9.30;;;;;;;14.55;100.00;97420.31;5072709;28;20049;-83
2021/08/02 06:27:21;;;;;;;13.30;9.23;;;;;;;14.67;100.00;97430.38;5073982;28;20078;-82
2021/08/02 06:29:47;;;;;;;15.95;9.27;;;;;;;14.73;100.00;97427.06;5070281;28;20056;-80
2021/08/02 06:32:17;;;;;;;18.35;10.30;;;;;;;14.91;100.00;97433.81;5068195;28;20040;-81
2021/08/02 06:34:43;;;;;;;20.30;10.10;;;;;;;15.18;100.00;97424.00;5066605;28;20128;-82
2021/08/02 06:37:10;;;;;;;16.08;10.10;;;;;;;15.22;100.00;97424.91;5069852;28;20056;-82
2021/08/02 06:39:37;;;;;;;15.63;9.82;;;;;;;15.33;100.00;97428.69;5072628;28;20350;-81
2021/08/02 06:42:04;;;;;;;14.77;9.40;;;;;;;15.40;100.00;97434.34;5070864;28;20056;-83
2021/08/02 06:44:33;;;;;;;16.58;9.57;;;;;;;15.36;100.00;97429.91;5072032;28;20059;-83
2021/08/02 06:47:02;;;;;;;17.83;9.50;;;;;;;15.49;100.00;97442.38;5069109;28;20546;-81
2021/08/02 06:49:29;;;;;;;15.63;9.40;;;;;;;15.47;100.00;97436.47;5071274;28;20045;-79
2021/08/02 06:51:56;;;;;;;14.85;9.15;;;;;;;15.41;100.00;97430.44;5085688;28;20461;-80
2021/08/02 06:54:25;;;;;;;15.48;9.45;;;;;;;15.36;100.00;97443.56;5070865;28;20048;-80
2021/08/02 06:56:51;;;;;;;12.00;9.27;;;;;;;15.36;100.00;97432.63;5070462;28;20115;-80
2021/08/02 06:59:18;;;;;;;12.57;9.15;;;;;;;15.38;100.00;97446.75;5068468;28;20048;-82
2021/08/02 07:01:44;;;;;;;17.38;9.43;;;;;;;15.30;100.00;97447.69;5071131;28;20499;-81
2021/08/02 07:04:11;;;;;;;17.27;9.57;;;;;;;15.32;100.00;97446.19;5068314;28;20105;-80
2021/08/02 07:06:43;;;;;;;17.05;9.75;;;;;;;15.37;100.00;97447.88;5086478;28;20039;-80
2021/08/02 07:09:10;;;;;;;16.13;9.65;;;;;;;15.34;100.00;97456.75;5070420;28;20037;-80
2021/08/02 07:11:37;;;;;;;14.30;10.48;;;;;;;15.39;100.00;97457.28;5069523;28;20368;-81
2021/08/02 07:14:04;;;;;;;16.00;9.93;;;;;;;15.33;100.00;97458.69;5063031;28;20044;-81
2021/08/02 07:16:30;;;;;;;15.57;9.98;;;;;;;15.24;100.00;97462.72;5048201;28;20055;-82
2021/08/02 07:18:59;;;;;;;15.10;10.43;;;;;;;15.19;100.00;97458.31;5047932;28;20048;-82
2021/08/02 07:21:28;;;;;;;19.23;10.55;;;;;;;15.28;100.00;97463.63;5053377;28;20152;-78
2021/08/02 07:23:57;;;;;;;16.73;11.02;;;;;;;15.36;100.00;97463.44;5062090;28;20045;-83
2021/08/02 07:26:24;;;;;;;13.18;9.55;;;;;;;15.36;100.00;97468.09;5065809;28;20116;-82
2021/08/02 07:28:54;;;;;;;14.68;10.90;;;;;;;15.48;100.00;97466.16;5066371;28;20066;-81
2021/08/02 07:31:20;;;;;;;21.23;10.38;;;;;;;15.52;100.00;97467.03;5082925;28;20521;-81
2021/08/02 07:33:47;;;;;;;13.25;9.07;;;;;;;15.54;100.00;97469.38;5046049;28;20461;-82
2021/08/02 07:36:14;;;;;;;16.83;9.68;;;;;;;15.54;100.00;97474.84;5055796;28;20529;-79
2021/08/02 07:38:43;;;;;;;17.20;9.85;;;;;;;15.48;100.00;97474.34;5055818;28;20112;-82
2021/08/02 07:41:09;;;;;;;16.90;10.80;;;;;;;15.42;100.00;97483.09;5027895;28;20046;-81
2021/08/02 07:43:36;;;;;;;15.73;10.15;;;;;;;15.21;100.00;97482.50;5045229;28;20048;-81
2021/08/02 07:46:03;;;;;;;9.95;8.63;;;;;;;15.12;100.00;97484.59;5046138;28;20059;-80
2021/08/02 07:48:30;;;;;;;10.35;8.55;;;;;;;15.17;100.00;97492.53;5066104;28;20131;-80
2021/08/02 07:50:56;;;;;;;11.05;7.80;;;;;;;15.27;100.00;97484.66;5067882;28;20065;-80
2021/08/02 07:53:23;;;;;;;14.65;8.63;;;;;;;15.66;100.00;97472.06;5067528;28;20051;-80
2021/08/02 07:55:50;;;;;;;10.20;7.72;;;;;;;15.94;100.00;97477.41;5070747;28;20041;-81
2021/08/02 07:58:18;;;;;;;12.75;7.97;;;;;;;16.08;100.00;97478.53;5067643;28;20422;-83
2021/08/02 08:00:45;;;;;;;9.93;7.50;;;;;;;16.11;100.00;97482.50;5082688;28;20054;-81
2021/08/02 08:03:13;;;;;;;10.18;7.20;;;;;;;16.21;100.00;97482.75;5082751;28;20439;-80
2021/08/02 08:05:41;;;;;;;9.50;6.60;;;;;;;16.04;100.00;97482.34;5066595;28;20045;-82
2021/08/02 08:08:08;;;;;;;8.80;6.30;;;;;;;15.93;100.00;97484.81;5060639;28;20037;-82
2021/08/02 08:10:36;;;;;;;9.00;6.60;;;;;;;15.74;100.00;97482.00;5036448;28;20235;-83
2021/08/02 08:13:03;;;;;;;9.35;6.35;;;;;;;15.70;100.00;97492.03;5043816;28;20045;-82
2021/08/02 08:15:29;;;;;;;8.63;5.32;;;;;;;15.56;100.00;97486.22;5058807;28;20132;-82
2021/08/02 08:17:56;;;;;;;8.70;5.32;;;;;;;15.94;100.00;97500.06;5045837;28;20082;-83
2021/08/02 08:20:24;;;;;;;8.55;5.80;;;;;;;16.60;100.00;97483.66;5069545;28;20099;-80
2021/08/02 08:22:52;;;;;;;10.60;6.03;;;;;;;16.97;100.00;97475.06;5067487;28;20072;-83
2021/08/02 08:25:18;;;;;;;6.80;5.60;;;;;;;16.69;100.00;97481.53;5066924;28;20045;-82
2021/08/02 08:27:45;;;;;;;8.07;6.60;;;;;;;16.71;100.00;97486.63;5068245;28;20140;-82
2021/08/02 08:30:13;;;;;;;8.63;6.15;;;;;;;16.80;100.00;97479.81;5068037;28;20422;-83
2021/08/02 08:32:40;;;;;;;6.68;5.63;;;;;;;16.74;100.00;97477.72;5064118;28;20163;-82
2021/08/02 08:35:10;;;;;;;6.10;4.95;;;;;;;16.68;100.00;97481.88;5055434;28;20119;-81
2021/08/02 08:37:38;;;;;;;7.13;4.82;;;;;;;16.89;100.00;97493.28;5058798;28;20048;-81
2021/08/02 08:40:07;;;;;;;8.43;4.80;;;;;;;17.11;100.00;97487.06;5068286;28;20434;-83
2021/08/02 08:42:34;;;;;;;4.60;3.70;;;;;;;17.16;100.00;97492.25;5066316;28;20052;-83
2021/08/02 08:45:01;;;;;;;6.82;3.80;;;;;;;17.26;100.00;97490.91;5066626;28;20040;-82
2021/08/02 08:47:28;;;;;;;5.78;3.53;;;;;;;17.21;100.00;97482.97;5066420;28;20055;-80
2021/08/02 08:49:54;;;;;;;8.80;3.60;;;;;;;17.29;100.00;97482.75;5065996;28;20044;-80
2021/08/02 08:52:21;;;;;;;7.47;4.07;;;;;;;17.84;100.00;97489.66;5066228;28;20556;-81
2021/08/02 08:54:47;;;;;;;5.03;3.35;;;;;;;18.09;100.00;97490.06;5065671;28;20416;-82
2021/08/02 08:57:14;;;;;;;4.00;3.20;;;;;;;18.26;100.00;97492.28;5066747;28;20490;-81
2021/08/02 08:59:51;;;;;;;4.43;2.90;;;;;;;18.27;100.00;97488.38;5070840;28;20164;-82
2021/08/02 09:02:28;;;;;;;4.20;2.38;;;;;;;18.09;100.00;97483.78;5067813;28;20449;-81
2021/08/02 09:04:57;;;;;;;3.00;2.08;;;;;;;18.36;100.00;97485.38;5066080;28;20048;-82
2021/08/02 09:07:38;;;;;;;3.80;2.42;;;;;;;18.91;100.00;97484.63;5068438;28;20060;-83
2021/08/02 09:10:08;;;;;;;4.15;2.97;;;;;;;18.73;100.00;97483.59;5068350;28;20040;-82
2021/08/02 09:12:47;;;;;;;3.28;2.80;;;;;;;18.32;100.00;97487.28;5066420;28;20102;-82
2021/08/02 09:15:14;;;;;;;5.50;3.13;;;;;;;18.63;100.00;97497.97;5067946;28;20149;-82
2021/08/02 09:17:41;;;;;;;6.20;2.58;;;;;;;18.58;100.00;97504.53;5067898;28;20067;-81
2021/08/02 09:20:17;;;;;;;3.08;2.38;;;;;;;18.62;100.00;97494.44;5068298;28;20086;-82
2021/08/02 09:22:45;;;;;;;5.38;2.72;;;;;;;19.02;100.00;97493.75;5067675;28;20048;-83
2021/08/02 09:25:20;;;;;;;4.93;2.47;;;;;;;18.85;100.00;97499.81;5068652;28;20049;-82
2021/08/02 09:27:49;;;;;;;3.40;2.10;;;;;;;18.47;100.00;97498.13;5068648;28;20053;-80
2021/08/02 09:30:21;;;;;;;2.85;2.20;;;;;;;18.20;100.00;97499.22;5067981;28;20051;-81
2021/08/02 09:32:55;;;;;;;3.08;1.98;;;;;;;18.00;100.00;97493.06;5065240;28;20417;-83
2021/08/02 09:35:38;;;;;;;3.72;2.03;;;;;;;18.43;100.00;97499.19;5065605;28;20048;-80
2021/08/02 09:38:10;;;;;;;3.45;2.00;;;;;;;19.29;100.00;97498.03;5067434;28;20310;-81
2021/08/02 09:40:49;;;;;;;3.58;1.90;;;;;;;20.24;100.00;97495.47;5067348;28;20068;-84
2021/08/02 09:43:20;;;;;;;2.60;2.05;;;;;;;20.60;100.00;97488.25;5073406;28;20117;-82
2021/08/02 09:46:07;;;;;;;3.83;1.85;;;;;;;19.86;100.00;97490.41;5071358;28;20075;-82
2021/08/02 09:48:39;;;;;;;3.38;2.20;;;;;;;20.48;100.00;97497.63;5081887;28;20072;-81
2021/08/02 09:51:18;;;;;;;3.13;1.80;;;;;;;20.03;100.00;97492.50;5064938;28;20143;-81
2021/08/02 09:53:48;;;;;;;3.10;1.85;;;;;;;20.09;100.00;97493.75;5065599;28;20043;-82
2021/08/02 09:56:17;;;;;;;3.03;1.90;;;;;;;19.60;100.00;97493.28;5067906;28;20048;-85
2021/08/02 09:59:06;;;;;;;2.42;1.83;;;;;;;19.89;100.00;97497.91;5066323;28;20044;-82
2021/08/02 10:01:36;;;;;;;4.90;1.75;;;;;;;21.41;100.00;97507.16;5064468;28;20039;-81
2021/08/02 10:04:24;;;;;;;4.38;2.25;;;;;;;21.33;100.00;97503.59;5051854;28;20063;-83
2021/08/02 10:06:51;;;;;;;4.93;2.30;;;;;;;21.47;100.00;97502.84;5066984;28;20173;-83
2021/08/02 10:09:19;;;;;;;4.10;2.00;;;;;;;21.40;100.00;97494.53;5066812;28;20051;-83
2021/08/02 10:11:46;;;;;;;3.25;2.08;;;;;;;22.47;100.00;97497.06;5066466;28;20044;-81
2021/08/02 10:14:18;;;;;;;7.18;1.80;;;;;;;22.79;100.00;97494.25;5085193;28;20242;-84
2021/08/02 10:16:46;;;;;;;2.50;1.60;;;;;;;21.90;100.00;97490.75;5084608;28;20165;-82
2021/08/02 10:19:14;;;;;;;2.00;1.65;;;;;;;21.53;100.00;97502.06;5068585;28;20048;-83
2021/08/02 10:21:43;;;;;;;2.30;1.73;;;;;;;20.86;100.00;97489.97;5070296;28;20054;-84
2021/08/02 10:24:17;;;;;;;2.83;1.80;;;;;;;20.47;100.00;97498.78;5068952;28;20067;-83
2021/08/02 10:26:57;;;;;;;6.75;2.10;;;;;;;19.74;100.00;97491.47;5070228;28;20045;-83
2021/08/02 10:29:25;;;;;;;2.13;1.70;;;;;;;19.63;100.00;97498.81;5071513;28;20052;-82
2021/08/02 10:31:52;;;;;;;3.20;1.83;;;;;;;20.63;100.00;97501.25;5071085;28;20054;-83
2021/08/02 10:34:23;;;;;;;3.13;1.80;;;;;;;20.54;100.00;97505.50;5071207;28;20044;-83
2021/08/02 10:37:03;;;;;;;3.88;1.92;;;;;;;19.88;100.00;97496.31;5072197;28;20055;-83
2021/08/02 10:39:33;;;;;;;2.90;1.63;;;;;;;19.78;100.00;97497.78;5058498;28;20067;-83
2021/08/02 10:42:12;;;;;;;5.35;1.85;;;;;;;20.00;100.00;97512.53;5035244;28;20049;-83
2021/08/02 10:45:00;;;;;;;4.32;1.90;;;;;;;19.04;100.00;97515.34;5064917;28;20052;-82
2021/08/02 10:47:38;;;;;;;4.85;1.95;;;;;;;19.88;100.00;97508.09;5069558;28;20048;-81
2021/08/02 10:50:07;;;;;;;3.53;1.83;;;;;;;22.23;100.00;97495.09;5068078;28;20091;-82
2021/08/02 10:52:36;;;;;;;2.55;1.90;;;;;;;23.01;100.00;97508.78;5067569;28;20102;-81
2021/08/02 10:55:17;;;;;;;3.75;1.80;;;;;;;22.83;100.00;97504.13;5067939;28;20045;-82
2021/08/02 10:57:56;;;;;;;3.60;2.08;;;;;;;22.22;100.00;97504.56;5060624;28;20045;-82
2021/08/02 11:00:22;;;;;;;8.60;1.85;;;;;;;20.98;100.00;97498.66;5045807;28;20049;-81
2021/08/02 11:02:54;;;;;;;3.38;2.00;;;;;;;20.02;100.00;97490.94;5066864;28;20067;-81
2021/08/02 11:05:23;;;;;;;3.95;2.45;;;;;;;19.48;100.00;97493.56;5068447;28;20133;-82
2021/08/02 11:07:49;;;;;;;4.18;2.33;;;;;;;18.95;100.00;97481.91;5067981;28;20521;-82
2021/08/02 11:10:16;;;;;;;3.15;2.13;;;;;;;18.74;100.00;97487.91;5065805;28;20040;-80
2021/08/02 11:12:45;;;;;;;3.10;1.92;;;;;;;18.78;100.00;97490.72;5048694;28;20227;-81
2021/08/02 11:15:12;;;;;;;3.13;2.03;;;;;;;18.73;100.00;97493.78;5065961;28;20044;-81
2021/08/02 11:17:50;;;;;;;3.85;2.00;;;;;;;18.83;100.00;97493.94;5046927;28;20498;-81
2021/08/02 11:20:18;;;;;;;3.95;2.42;;;;;;;18.79;100.00;97495.06;5062679;28;20087;-83
2021/08/02 11:22:52;;;;;;;2.63;2.30;;;;;;;19.15;100.00;97491.59;5029662;28;20050;-81
2021/08/02 11:25:30;;;;;;;4.32;2.40;;;;;;;19.83;100.00;97497.44;5032655;28;20099;-82
2021/08/02 11:27:58;;;;;;;3.53;2.50;;;;;;;20.02;100.00;97487.41;5031018;28;20037;-84
2021/08/02 11:30:26;;;;;;;5.25;2.90;;;;;;;20.23;100.00;97502.16;5062201;28;20045;-84
2021/08/02 11:32:53;;;;;;;2.58;2.22;;;;;;;19.89;100.00;97500.63;5062825;28;20626;-80